Flight Track Log - Related Links

Times and Time Zones

All times are in EDT time to prevent confusion due to time zone crossing. See the AAL1012 flight status page for this flight to view local times or setup timezone preferences in your user account.

Time Position Orientation Groundspeed Altitude Reporting Facility
EDT Latitude Longitude Course Direction KTS MPH feet Rate Location/Type
Sun 03:07:48 PM 25.8030 -80.2630 61° Northeast 174 200 700  Level FlightAware
Sun 03:08:03 PM 25.8040 -80.2490 85° East 170 196 1,500 2,000 Climbing FlightAware
Sun 03:08:33 PM 25.8090 -80.2210 79° East 197 227 2,200 1,200 Climbing FlightAware
Sun 03:08:43 PM 25.8110 -80.2100 79° East 211 243 2,300 1,050 Climbing FlightAware
Sun 03:09:13 PM 25.8160 -80.1750 81° East 245 282 2,900 1,467 Climbing FlightAware
Sun 03:09:28 PM 25.8240 -80.1560 65° Northeast 263 303 3,400 2,400 Climbing FlightAware
Sun 03:09:53 PM 25.8390 -80.1270 60° Northeast 264 304 4,500 2,700 Climbing FlightAware
Sun 03:10:08 PM 25.8480 -80.1100 60° Northeast 265 305 5,200 2,400 Climbing FlightAware
Sun 03:10:38 PM 25.8670 -80.0730 60° Northeast 272 313 6,300 2,291 Climbing FlightAware
Sun 03:11:03 PM 25.8830 -80.0430 59° Northeast 277 319 7,300 2,509 Climbing FlightAware
Sun 03:11:33 PM 25.9030 -80.0040 60° Northeast 283 326 8,600 2,400 Climbing FlightAware
Sun 03:11:58 PM 25.9200 -79.9700 61° Northeast 299 344 9,500 1,886 Climbing FlightAware
Sun 03:12:43 PM 25.9530 -79.9090 59° Northeast 326 375 10,800 1,482 Climbing FlightAware
Sun 03:13:23 PM 25.9850 -79.8460 61° Northeast 367 422 11,600 1,765 Climbing FlightAware
Sun 03:14:08 PM 26.0240 -79.7700 60° Northeast 384 442 13,300 2,329 Climbing FlightAware
Sun 03:14:48 PM 26.0600 -79.7000 60° Northeast 399 459 14,900 2,612 Climbing FlightAware
Sun 03:15:33 PM 26.1050 -79.6190 58° Northeast 399 459 17,000 2,550 Climbing FlightAware
Sun 03:16:08 PM 26.1540 -79.5730 40° Northeast 402 463 18,300 2,250 Climbing FlightAware
Sun 03:16:53 PM 26.2370 -79.5230 28° Northeast 428 493 20,000 2,133 Climbing FlightAware
Sun 03:17:38 PM 26.3140 -79.4760 29° Northeast 438 504 21,500 1,906 Climbing FlightAware
Sun 03:18:18 PM 26.3840 -79.4330 29° Northeast 447 514 22,700 1,950 Climbing FlightAware
Sun 03:18:58 PM 26.4590 -79.3860 29° Northeast 444 511 24,100 1,765 Climbing FlightAware
Sun 03:19:43 PM 26.5380 -79.3380 29° Northeast 457 526 25,200 1,412 Climbing FlightAware
Sun 03:20:23 PM 26.6160 -79.2900 29° Northeast 477 549 26,100 1,125 Climbing FlightAware
Sun 03:21:03 PM 26.6920 -79.2430 29° Northeast 485 558 26,700 1,129 Climbing FlightAware
Sun 03:21:48 PM 26.7890 -79.1820 29° Northeast 504 580 27,700 1,333 Climbing FlightAware
Sun 03:22:33 PM 26.8760 -79.1280 29° Northeast 503 579 28,700 1,553 Climbing FlightAware
Sun 03:23:13 PM 26.9560 -79.0780 29° Northeast 499 574 29,900 1,840 Climbing FlightAware
Sun 03:23:48 PM 27.0270 -79.0330 29° Northeast 496 571 31,000 1,835 Climbing FlightAware
Sun 03:24:38 PM 27.1350 -78.9660 29° Northeast 495 570 32,500 1,733 Climbing FlightAware
Sun 03:25:18 PM 27.2140 -78.9160 29° Northeast 486 559 33,600 1,516 Climbing FlightAware
Sun 03:26:13 PM 27.3210 -78.8490 29° Northeast 484 557 34,900 1,326 Climbing FlightAware
Sun 03:26:53 PM 27.4040 -78.8030 26° Northeast 466 536 35,700 1,020 Climbing FlightAware
Sun 03:27:53 PM 27.5200 -78.7800 10° North 438 504 36,600 780 Climbing FlightAware
Sun 03:28:33 PM 27.6040 -78.7670 North 439 505 37,000 282 Climbing FlightAware
Sun 03:29:18 PM 27.6980 -78.7540 North 441 507 37,000  Level FlightAware
Sun 03:30:13 PM 27.8060 -78.7370 North 440 506 37,000  Level FlightAware
Sun 03:31:33 PM 27.9660 -78.7140 North 37,000  Level FlightAware
Sun 03:32:18 PM 28.0630 -78.7000 North 437 503 37,000  Level FlightAware
Sun 03:33:13 PM 28.1680 -78.6850 North 435 501 37,000  Level FlightAware
Sun 03:33:53 PM 28.2450 -78.6740 North 434 499 37,000  Level FlightAware
Sun 03:34:33 PM 28.3130 -78.6640 North 434 499 37,000  Level FlightAware
Sun 03:35:13 PM 28.3800 -78.6550 North 434 499 37,000  Level FlightAware
Sun 03:36:03 PM 28.4650 -78.6430 North 434 499 37,000  Level FlightAware
Sun 03:36:43 PM 28.5330 -78.6340 North 434 499 37,000  Level FlightAware
Sun 03:37:23 PM 28.6010 -78.6240 North 434 499 37,000  Level FlightAware
Sun 03:38:03 PM 28.6680 -78.6150 North 434 499 37,000  Level FlightAware
Sun 03:38:43 PM 28.7360 -78.6050 North 434 499 37,000  Level FlightAware
Sun 03:39:33 PM 28.8210 -78.5930 North 434 499 37,000  Level FlightAware
Sun 03:40:13 PM 28.8890 -78.5840 North 434 499 37,000  Level FlightAware
Sun 03:40:53 PM 28.9560 -78.5740 North 434 499 37,000  Level FlightAware
Sun 03:41:33 PM 29.0240 -78.5650 North 434 499 37,000  Level FlightAware
Sun 03:42:23 PM 29.1090 -78.5530 North 434 499 37,000  Level FlightAware
Sun 03:43:03 PM 29.1770 -78.5430 North 434 499 37,000  Level FlightAware
Sun 03:43:19 PM 29.4181 -78.4975 North 446 513 37,000  Level Miami Center
Sun 03:44:19 PM 29.5475 -78.4803 North 452 520 37,000  Level Miami Center
Sun 03:45:20 PM 29.6667 -78.4583 North 447 514 37,000  Level Miami Center
Sun 03:46:20 PM 29.7900 -78.4367 North 447 514 37,000  Level Jacksonville Center
Sun 03:47:20 PM 29.9106 -78.4242 North 460 529 37,000  Level Jacksonville Center
Sun 03:48:20 PM 30.0328 -78.3992 10° North 461 531 37,000  Level Jacksonville Center
Sun 03:49:20 PM 30.1683 -78.3906 North 461 531 37,000  Level Jacksonville Center
Sun 03:50:20 PM 30.3031 -78.3672 North 447 514 37,000  Level Jacksonville Center
Sun 03:51:20 PM 30.4317 -78.3469 North 471 542 37,000  Level Jacksonville Center
Sun 03:52:20 PM 30.5603 -78.3189 11° North 457 526 37,000  Level Jacksonville Center
Sun 03:53:20 PM 30.6861 -78.2792 15° North 465 535 37,000 -50 Level Jacksonville Center
Sun 03:54:20 PM 30.8139 -78.2342 17° North 472 543 36,900 -50 Descending Jacksonville Center
Sun 03:55:20 PM 30.9375 -78.1894 17° North 467 537 36,900 50 Level Jacksonville Center
Sun 03:56:20 PM 31.0611 -78.1444 17° North 459 528 37,000 50 Climbing Jacksonville Center
Sun 03:57:20 PM 31.1822 -78.0897 21° North 452 520 37,000 -50 Level Jacksonville Center
Sun 03:58:20 PM 31.3058 -78.0517 15° North 457 526 36,900 -50 Descending Jacksonville Center
Sun 03:59:20 PM 31.4256 -78.0114 16° North 449 517 36,900 50 Level Jacksonville Center
Sun 04:00:20 PM 31.5528 -77.9611 19° North 458 527 37,000 50 Climbing Jacksonville Center
Sun 04:01:20 PM 31.6767 -77.9228 15° North 451 519 37,000  Level Jacksonville Center
Sun 04:02:20 PM 31.7983 -77.8844 15° North 448 516 37,000  Level Jacksonville Center
Sun 04:03:20 PM 31.9214 -77.8336 19° North 454 522 37,000 -50 Level Jacksonville Center
Sun 04:04:20 PM 32.0450 -77.7900 17° North 454 522 36,900 -50 Descending Jacksonville Center
Sun 04:05:20 PM 32.1661 -77.7442 18° North 454 522 36,900 50 Level Jacksonville Center
Sun 04:06:20 PM 32.2900 -77.7053 15° North 454 522 37,000 50 Climbing Jacksonville Center
Sun 04:07:20 PM 32.4092 -77.6639 16° North 454 522 37,000  Level Jacksonville Center
Sun 04:08:20 PM 32.5303 -77.6150 19° North 454 522 37,000  Level Jacksonville Center
Sun 04:09:20 PM 32.6517 -77.5733 16° North 454 522 37,000  Level Jacksonville Center
Sun 04:10:20 PM 32.7731 -77.5294 17° North 454 522 37,000  Level Jacksonville Center
Sun 04:11:20 PM 32.8919 -77.4828 18° North 454 522 37,000 -50 Level Jacksonville Center
Sun 04:12:20 PM 33.0133 -77.4406 16° North 454 522 36,900  Descending Jacksonville Center
Sun 04:14:13 PM 33.2325 -77.3617 17° North 446 513 37,000 35 Climbing Washington Center
Sun 04:15:13 PM 33.3522 -77.3144 18° North 446 513 37,000  Level Washington Center
Sun 04:16:13 PM 33.4717 -77.2747 16° North 446 513 37,000  Level Washington Center
Sun 04:17:13 PM 33.5933 -77.2247 19° North 446 513 37,000  Level Washington Center
Sun 04:18:13 PM 33.7128 -77.1822 16° North 446 513 37,000  Level Washington Center
Sun 04:19:13 PM 33.8364 -77.1344 18° North 446 513 37,000 -50 Level Washington Center
Sun 04:20:13 PM 33.9600 -77.0892 17° North 451 519 36,900  Descending Washington Center
Sun 04:21:13 PM 34.0858 -77.0439 17° North 456 525 37,000 50 Climbing Washington Center
Sun 04:22:13 PM 34.2075 -76.9958 18° North 461 531 37,000  Level Washington Center
Sun 04:23:13 PM 34.3311 -76.9500 17° North 461 531 37,000  Level Washington Center
Sun 04:24:13 PM 34.4567 -76.9019 18° North 461 531 37,000  Level Washington Center
Sun 04:25:13 PM 34.5783 -76.8583 16° North 461 531 37,000  Level Washington Center
Sun 04:26:13 PM 34.7019 -76.8097 18° North 461 531 37,000 -50 Level Washington Center
Sun 04:27:13 PM 34.8211 -76.7661 17° North 461 531 36,900  Descending Washington Center
Sun 04:28:13 PM 34.9406 -76.7169 19° North 461 531 37,000 -200 Climbing Washington Center
Sun 04:29:13 PM 35.0619 -76.6706 17° North 455 524 36,500 -550 Descending Washington Center
Sun 04:30:13 PM 35.1856 -76.6239 17° North 455 524 35,900 -600 Descending Washington Center
Sun 04:31:13 PM 35.3092 -76.5769 17° North 455 524 35,300 -700 Descending Washington Center
Sun 04:32:13 PM 35.4389 -76.5225 19° North 455 524 34,500 -750 Descending Washington Center
Sun 04:33:13 PM 35.5622 -76.4731 18° North 455 524 33,800 -650 Descending Washington Center
Sun 04:34:13 PM 35.6858 -76.4258 17° North 460 529 33,200 -450 Descending Washington Center
Sun 04:35:13 PM 35.8092 -76.3783 17° North 465 535 32,900 -100 Descending Washington Center
Sun 04:36:13 PM 35.9347 -76.3308 17° North 465 535 33,000 -100 Climbing Washington Center
Sun 04:37:13 PM 36.0561 -76.2806 19° North 465 535 32,700 -500 Descending Washington Center
Sun 04:38:13 PM 36.1814 -76.2328 17° North 465 535 32,000 -700 Descending Washington Center
Sun 04:39:13 PM 36.3069 -76.1797 19° North 465 535 31,300 -700 Descending Washington Center
Sun 04:40:13 PM 36.4344 -76.1317 17° North 465 535 30,600 -650 Descending Washington Center
Sun 04:41:13 PM 36.5639 -76.0808 18° North 470 541 30,000 -700 Descending Washington Center
Sun 04:42:13 PM 36.6894 -76.0272 19° North 475 547 29,200 -750 Descending Washington Center
Sun 04:43:13 PM 36.8189 -75.9733 18° North 480 552 28,500 -750 Descending Washington Center
Sun 04:44:13 PM 36.9400 -75.9272 17° North 474 545 27,700 -506 Descending Washington Center
Sun 04:50:08 PM 37.5960 -75.6560 17° North 421 484 25,000 -522 Descending FlightAware
Sun 04:50:32 PM 37.6559 -75.6311 18° North 416 479 24,400 -1,235 Descending FlightAware
Sun 04:51:16 PM 37.7356 -75.5978 18° North 412 474 23,600 -1,077 Descending FlightAware
Sun 04:51:50 PM 37.7965 -75.5725 18° North 406 467 23,000 -1,000 Descending FlightAware
Sun 04:52:22 PM 37.8533 -75.5489 18° North 404 465 22,500 -952 Descending FlightAware
Sun 04:52:53 PM 37.9073 -75.5264 18° North 398 458 22,000 -1,015 Descending FlightAware
Sun 04:53:27 PM 37.9663 -75.5017 18° North 395 455 21,400 -1,059 Descending FlightAware
Sun 04:54:01 PM 38.0253 -75.4771 18° North 392 451 20,800 -985 Descending FlightAware
Sun 04:54:34 PM 38.0819 -75.4481 22° Northeast 395 455 20,300 -938 Descending FlightAware
Sun 04:55:05 PM 38.1315 -75.4170 26° Northeast 394 453 19,800 -984 Descending FlightAware
Sun 04:55:35 PM 38.1808 -75.3858 26° Northeast 391 450 19,300 -1,065 Descending FlightAware
Sun 04:56:07 PM 38.2331 -75.3527 26° Northeast 385 443 18,700 -1,000 Descending FlightAware
Sun 04:56:41 PM 38.2863 -75.3190 26° Northeast 382 440 18,200 -923 Descending FlightAware
Sun 04:57:12 PM 38.3350 -75.2882 26° Northeast 382 440 17,700 -1,054 Descending FlightAware
Sun 04:57:55 PM 38.4023 -75.2454 26° Northeast 377 434 16,900 -1,068 Descending FlightAware
Sun 04:58:25 PM 38.4489 -75.2158 26° Northeast 372 428 16,400 -952 Descending FlightAware
Sun 04:58:58 PM 38.4994 -75.1838 26° Northeast 363 418 15,900 -952 Descending FlightAware
Sun 04:59:28 PM 38.5448 -75.1548 27° Northeast 360 414 15,400 -822 Descending FlightAware
Sun 05:00:11 PM 38.6081 -75.1143 27° Northeast 356 410 14,900 -300 Descending FlightAware
Sun 05:01:08 PM 38.6870 -75.0640 26° Northeast 342 394 14,900  Level FlightAware
Sun 05:01:31 PM 38.7245 -75.0398 27° Northeast 351 404 14,900  Level FlightAware
Sun 05:01:49 PM 38.7506 -75.0262 22° Northeast 343 395 14,900  Level FlightAware
Sun 05:02:00 PM 38.7671 -75.0203 16° North 341 392 14,900  Level FlightAware
Sun 05:02:13 PM 38.7871 -75.0158 10° North 341 392 14,900 -279 Level FlightAware
Sun 05:02:43 PM 38.8349 -75.0071 North 340 391 14,700 -984 Descending FlightAware
Sun 05:03:14 PM 38.8831 -74.9984 North 338 389 13,900 -1,569 Descending FlightAware
Sun 05:03:48 PM 38.9351 -74.9887 North 338 389 13,000 -1,569 Descending FlightAware
Sun 05:04:19 PM 38.9837 -74.9796 North 332 382 12,200 -1,452 Descending FlightAware
Sun 05:04:50 PM 39.0301 -74.9711 North 329 379 11,500 -1,475 Descending FlightAware
Sun 05:05:20 PM 39.0756 -74.9626 North 325 374 10,700 -1,279 Descending FlightAware
Sun 05:05:51 PM 39.1207 -74.9542 North 315 362 10,200 -840 Descending FlightAware
Sun 05:06:10 PM 39.1483 -74.9490 North 301 346 10,000 -686 Descending FlightAware
Sun 05:06:26 PM 39.1690 -74.9451 North 289 333 9,800 -563 Descending FlightAware
Sun 05:06:42 PM 39.1903 -74.9412 North 282 325 9,700 -514 Descending FlightAware
Sun 05:07:01 PM 39.2139 -74.9368 North 275 316 9,500 -529 Descending FlightAware
Sun 05:07:16 PM 39.2331 -74.9333 North 272 313 9,400 -600 Descending FlightAware
Sun 05:07:31 PM 39.2515 -74.9299 North 269 310 9,200 -600 Descending FlightAware
Sun 05:07:46 PM 39.2702 -74.9265 North 268 308 9,100 -364 Descending FlightAware
Sun 05:08:04 PM 39.2914 -74.9225 North 268 308 9,000 -474 Descending FlightAware
Sun 05:08:24 PM 39.3159 -74.9179 North 267 307 8,800 -324 Descending FlightAware
Sun 05:08:41 PM 39.3362 -74.9141 North 264 304 8,800  Level FlightAware
Sun 05:08:56 PM 39.3543 -74.9108 North 263 303 8,800  Level FlightAware
Sun 05:09:06 PM 39.3663 -74.9088 North 259 298 8,800  Level FlightAware
Sun 05:09:13 PM 39.3747 -74.9087 North 256 295 8,800  Level FlightAware
Sun 05:09:16 PM 39.3790 -74.9091 356° North 255 293 8,800  Level FlightAware
Sun 05:09:23 PM 39.3865 -74.9105 352° North 252 290 8,800  Level FlightAware
Sun 05:09:34 PM 39.3994 -74.9148 346° North 250 288 8,800  Level FlightAware
Sun 05:09:49 PM 39.4162 -74.9211 344° North 251 289 8,800  Level FlightAware
Sun 05:10:06 PM 39.4351 -74.9282 344° North 249 287 8,800  Level FlightAware
Sun 05:10:21 PM 39.4518 -74.9345 344° North 250 288 8,800 -286 Level FlightAware
Sun 05:10:27 PM 39.4583 -74.9368 345° North 252 290 8,700 -667 Descending FlightAware
Sun 05:10:30 PM 39.4618 -74.9377 349° North 253 291 8,700 -600 Level FlightAware
Sun 05:10:37 PM 39.4693 -74.9389 353° North 255 293 8,600 -1,200 Descending FlightAware
Sun 05:10:55 PM 39.4907 -74.9412 355° North 256 295 8,200 -1,059 Descending FlightAware
Sun 05:11:11 PM 39.5100 -74.9428 356° North 257 296 8,000 -774 Descending FlightAware
Sun 05:11:26 PM 39.5278 -74.9443 356° North 256 295 7,800 -387 Descending FlightAware
Sun 05:11:42 PM 39.5462 -74.9457 357° North 254 292 7,800  Level FlightAware
Sun 05:11:55 PM 39.5620 -74.9469 357° North 254 292 7,800  Level FlightAware
Sun 05:12:11 PM 39.5804 -74.9484 356° North 253 291 7,800 176 Level FlightAware
Sun 05:12:29 PM 39.6014 -74.9501 356° North 251 289 7,900 -154 Climbing FlightAware
Sun 05:12:50 PM 39.6252 -74.9520 356° North 252 290 7,700 -833 Descending FlightAware
Sun 05:13:05 PM 39.6433 -74.9536 356° North 251 289 7,400 -1,161 Descending FlightAware
Sun 05:13:21 PM 39.6609 -74.9551 356° North 249 287 7,100 -1,263 Descending FlightAware
Sun 05:13:43 PM 39.6864 -74.9572 356° North 245 282 6,600 -1,263 Descending FlightAware
Sun 05:13:59 PM 39.7041 -74.9591 355° North 235 270 6,300 -1,385 Descending FlightAware
Sun 05:14:22 PM 39.7279 -74.9632 352° North 229 264 5,700 -1,692 Descending FlightAware
Sun 05:14:38 PM 39.7454 -74.9675 349° North 238 274 5,200 -1,929 Descending FlightAware
Sun 05:14:50 PM 39.7589 -74.9711 348° North 240 276 4,800 -1,556 Descending FlightAware
Sun 05:15:05 PM 39.7752 -74.9754 349° North 240 276 4,500 -1,313 Descending FlightAware
Sun 05:15:22 PM 39.7930 -74.9801 349° North 239 275 4,100 -1,313 Descending FlightAware
Sun 05:15:37 PM 39.8095 -74.9846 348° North 238 274 3,800 -968 Descending FlightAware
Sun 05:15:53 PM 39.8264 -74.9896 347° North 232 267 3,600 -692 Descending FlightAware
Sun 05:16:03 PM 39.8369 -74.9924 348° North 226 260 3,500 -720 Descending FlightAware
Sun 05:16:18 PM 39.8521 -74.9966 348° North 215 247 3,300 -581 Descending FlightAware
Sun 05:16:34 PM 39.8671 -75.0008 348° North 203 234 3,200 -571 Descending FlightAware
Sun 05:16:39 PM 39.8716 -75.0023 346° North 200 230 3,100 -500 Descending FlightAware
Sun 05:16:46 PM 39.8767 -75.0051 337° Northwest 194 223 3,100 -462 Level FlightAware
Sun 05:16:52 PM 39.8808 -75.0096 320° Northwest 190 219 3,000 -500 Descending FlightAware
Sun 05:16:58 PM 39.8834 -75.0156 299° West 186 214 3,000 -667 Level FlightAware
Sun 05:17:01 PM 39.8842 -75.0188 288° West 183 211 2,900 -545 Descending FlightAware
Sun 05:17:09 PM 39.8855 -75.0270 282° West 175 201 2,900 -643 Level FlightAware
Sun 05:17:29 PM 39.8894 -75.0472 284° West 170 196 2,600 -889 Descending FlightAware
Sun 05:17:36 PM 39.8912 -75.0541 289° West 167 192 2,500 -720 Descending FlightAware
Sun 05:17:54 PM 39.8957 -75.0701 290° West 167 192 2,300 -857 Descending FlightAware
Sun 05:18:04 PM 39.8985 -75.0804 290° West 166 191 2,100 -1,059 Descending FlightAware
Sun 05:18:11 PM 39.9002 -75.0873 288° West 169 194 2,000 -500 Descending FlightAware
Sun 05:18:16 PM 39.9007 -75.0916 279° West 170 196 2,000 -667 Level FlightAware
Sun 05:18:20 PM 39.9007 -75.0956 270° West 170 196 1,900 -1,714 Descending FlightAware
Sun 05:18:23 PM 39.9002 -75.0990 259° West 170 196 1,800 -1,000 Descending FlightAware
Sun 05:18:26 PM 39.8997 -75.1021 258° West 173 199 1,800 -947 Level FlightAware
Sun 05:18:42 PM 39.8966 -75.1179 256° West 167 192 1,500 -968 Descending FlightAware
Sun 05:18:57 PM 39.8935 -75.1322 254° West 157 181 1,300 -857 Descending FlightAware
Sun 05:19:10 PM 39.8908 -75.1438 253° West 152 175 1,100 -889 Descending FlightAware
Sun 05:19:24 PM 39.8883 -75.1557 255° West 148 170 900 -828 Descending FlightAware
Sun 05:19:39 PM 39.8859 -75.1683 256° West 142 163 700 -774 Descending FlightAware
Sun 05:19:55 PM 39.8833 -75.1815 256° West 144 166 500 -706 Descending FlightAware
Sun 05:20:13 PM 39.8803 -75.1970 256° West 147 169 300 -667 Descending FlightAware

Login

Don't have an account? Register now (free) for customized features, flight alerts, and more!